Terminal Aerodrome Forecast
Issued by NWS

Current Version | Previous Version | Text Only | Print | Product List | Glossary On
Versions: 1 2 3 4 5 6 7 8 9 10 11 12 13 14 15 16
110
FTUS43 KDTX 271120
TAFMBS
TAF
KMBS 271120Z 2712/2812 28007KT P6SM SCT040
     FM271600 30012G18KT P6SM BKN050
     FM272300 27008KT P6SM FEW050
     FM280400 24004KT P6SM SKC=

USA.gov is the U.S. government's official web portal to all federal, state and local government web resources and services.